Middletown Regional/Hook Field (MWO)

 

Airport Diagram
No Airport Diagram Available
Current Weather/Forecast (MVFR Conditions)
METAR KMWO 270315Z AUTO 00000KT 5SM -RA BR BKN065 BKN075 OVC100 08/07 A3028 RMK AO2 P0002 T00780074
TAF

Airport Information

All Charts
General
Chart Name View
TAKEOFF MINIMUMS
ALTERNATE MINIMUMS
TAKEOFF MINIMUMS
ALTERNATE MINIMUMS

Arrivals
Chart Name Download
DANEI THREE
DANEI THREE

Approaches
Chart Name Download
RNAV (GPS) RWY 05
RNAV (GPS) RWY 23
LOC RWY 23
NDB RWY 23
NDB-A
RNAV (GPS) RWY 05
RNAV (GPS) RWY 23
LOC RWY 23


Airport Statistics
Departures Arrivals Local
All Collected Stats since June 2016: 1 1 0
2020 Stats: 1 0 0
October Stats: 0 0 0

Inbound Traffic (Arrivals) - 0

No inbound traffic.


Outbound Traffic (Departures) - 0

No outbound traffic.


Local Traffic (Pattern) - 0

No local traffic.